Time;durP1;ratioP1;P1;durP2;ratioP2;P2;SDS_P1;SDS_P2;PMS_P1;PMS_P2;Temp;Humidity;BMP_temperature;BMP_pressure;BME280_temperature;BME280_humidity;BME280_pressure;Samples;Min_cycle;Max_cycle;Signal;HPM_P1;HPM_P2
2024/04/16 00:07:17;;;;;;;;;;;5.80;99.90;;;;;;6674683;88;20069;-77
2024/04/16 00:17:18;;;;;;;;;;;5.70;99.90;;;;;;6663988;88;20579;-77
2024/04/16 00:27:19;;;;;;;;;;;5.60;99.90;;;;;;6670555;88;20065;-78
2024/04/16 00:37:19;;;;;;;;;;;5.60;99.90;;;;;;6662129;88;20224;-77
2024/04/16 00:47:20;;;;;;;;;;;5.70;99.90;;;;;;6668760;88;20109;-77
2024/04/16 00:57:21;;;;;;;;;;;5.80;99.90;;;;;;6667473;88;20566;-76
2024/04/16 01:07:22;;;;;;;;;;;5.60;99.90;;;;;;6678676;88;20118;-77
2024/04/16 01:17:23;;;;;;;;;;;5.60;99.90;;;;;;6668627;88;20061;-77
2024/04/16 01:27:23;;;;;;;;;;;5.60;99.90;;;;;;6694368;88;20188;-77
2024/04/16 01:37:24;;;;;;;;;;;5.60;99.90;;;;;;6682712;88;20064;-77
2024/04/16 01:47:25;;;;;;;;;;;5.60;99.90;;;;;;6672633;88;20511;-78
2024/04/16 01:57:25;;;;;;;;;;;5.50;99.90;;;;;;6663100;88;20197;-77
2024/04/16 02:07:26;;;;;;;;;;;5.30;99.90;;;;;;6666997;88;21286;-77
2024/04/16 02:17:27;;;;;;;;;;;5.20;99.90;;;;;;6663565;88;20050;-77
2024/04/16 02:27:27;;;;;;;;;;;5.10;99.90;;;;;;6668385;88;20066;-77
2024/04/16 02:37:27;;;;;;;;;;;5.20;99.90;;;;;;6670288;88;20083;-77
2024/04/16 02:47:28;;;;;;;;;;;5.30;99.90;;;;;;6676986;88;20075;-77
2024/04/16 02:57:28;;;;;;;;;;;5.40;99.90;;;;;;6668444;88;20053;-77
2024/04/16 03:07:29;;;;;;;;;;;5.40;99.90;;;;;;6667458;88;20061;-76
2024/04/16 03:17:29;;;;;;;;;;;5.40;99.90;;;;;;6672804;88;20085;-76
2024/04/16 03:27:30;;;;;;;;;;;5.30;99.90;;;;;;6663638;88;20066;-78
2024/04/16 03:37:31;;;;;;;;;;;5.50;99.90;;;;;;6664352;88;21014;-77
2024/04/16 03:47:31;;;;;;;;;;;5.60;99.90;;;;;;6660378;88;20220;-78
2024/04/16 03:57:32;;;;;;;;;;;5.80;99.90;;;;;;6661946;88;20099;-77
2024/04/16 04:07:32;;;;;;;;;;;5.90;99.90;;;;;;6664253;88;20101;-76
2024/04/16 04:17:34;;;;;;;;;;;6.00;99.90;;;;;;6666880;88;20073;-76
2024/04/16 04:27:34;;;;;;;;;;;5.90;99.90;;;;;;6666833;88;20064;-77
2024/04/16 04:37:35;;;;;;;;;;;5.80;99.90;;;;;;6662535;88;20068;-77
2024/04/16 04:58:37;;;;;;;;;;;5.80;99.90;;;;;;6635807;89;20190;-77
2024/04/16 05:08:37;;;;;;;;;;;5.60;99.90;;;;;;6653916;88;20066;-77
2024/04/16 05:18:38;;;;;;;;;;;5.50;99.90;;;;;;6653762;88;20069;-79
2024/04/16 05:28:38;;;;;;;;;;;5.60;99.90;;;;;;6652571;88;20061;-77
2024/04/16 05:38:39;;;;;;;;;;;5.60;99.90;;;;;;6652059;88;20057;-77
2024/04/16 05:48:40;;;;;;;;;;;5.70;99.90;;;;;;6652241;89;20057;-78
2024/04/16 05:58:40;;;;;;;;;;;6.00;99.90;;;;;;6650709;88;20052;-80
2024/04/16 06:08:41;;;;;;;;;;;6.10;99.90;;;;;;6652075;88;20061;-77
2024/04/16 06:18:42;;;;;;;;;;;6.40;99.90;;;;;;6652191;88;20551;-78
2024/04/16 06:28:42;;;;;;;;;;;6.60;99.90;;;;;;6659829;89;20884;-79
2024/04/16 06:38:42;;;;;;;;;;;6.60;99.90;;;;;;6658703;88;20075;-78
2024/04/16 06:48:43;;;;;;;;;;;6.60;99.90;;;;;;6651084;88;20075;-77
2024/04/16 06:58:44;;;;;;;;;;;6.60;99.90;;;;;;6649722;89;20645;-79
2024/04/16 07:08:44;;;;;;;;;;;6.70;99.90;;;;;;6650514;88;20671;-78
2024/04/16 07:18:46;;;;;;;;;;;6.80;99.90;;;;;;6652231;88;20061;-79
2024/04/16 07:28:46;;;;;;;;;;;6.40;99.90;;;;;;6650868;89;20084;-79
2024/04/16 07:38:47;;;;;;;;;;;6.00;99.90;;;;;;6647162;88;20145;-78
2024/04/16 07:48:48;;;;;;;;;;;5.80;99.90;;;;;;6641266;89;20110;-78
2024/04/16 07:58:48;;;;;;;;;;;5.70;99.90;;;;;;6649393;88;20069;-78
2024/04/16 08:08:50;;;;;;;;;;;5.70;99.90;;;;;;6649797;88;20182;-78
2024/04/16 08:18:51;;;;;;;;;;;5.60;99.90;;;;;;6646175;89;20061;-79
2024/04/16 08:28:51;;;;;;;;;;;5.60;99.90;;;;;;6645394;88;20083;-78
2024/04/16 08:38:52;;;;;;;;;;;5.60;99.90;;;;;;6648848;88;20090;-77
2024/04/16 08:48:52;;;;;;;;;;;5.60;99.90;;;;;;6647680;88;20470;-77
2024/04/16 08:58:53;;;;;;;;;;;5.80;99.90;;;;;;6652152;89;20198;-78
2024/04/16 09:08:54;;;;;;;;;;;5.90;99.90;;;;;;6651099;88;20112;-78
2024/04/16 09:19:11;;;;;;;;;;;6.10;99.90;;;;;;6649280;89;20534;-78
2024/04/16 09:29:11;;;;;;;;;;;6.40;99.90;;;;;;6651549;89;20591;-78
2024/04/16 09:39:16;;;;;;;;;;;6.60;99.90;;;;;;6651855;88;20066;-78
2024/04/16 09:49:16;;;;;;;;;;;6.90;99.90;;;;;;6649956;89;20973;-77
2024/04/16 09:59:17;;;;;;;;;;;7.50;99.90;;;;;;6644013;89;20186;-78
2024/04/16 10:09:19;;;;;;;;;;;8.40;99.90;;;;;;6654671;88;20118;-80
2024/04/16 10:19:19;;;;;;;;;;;8.80;99.90;;;;;;6669609;89;20138;-78
2024/04/16 10:29:23;;;;;;;;;;;8.50;99.90;;;;;;6670248;89;20060;-78
2024/04/16 10:39:29;;;;;;;;;;;8.40;99.90;;;;;;6636261;89;20089;-78
2024/04/16 10:49:29;;;;;;;;;;;9.10;99.90;;;;;;6668599;77;20580;-73
2024/04/16 10:59:30;;;;;;;;;;;9.20;99.90;;;;;;6666640;87;20206;-73
2024/04/16 11:09:30;;;;;;;;;;;10.00;99.90;;;;;;6684061;88;20112;-75
2024/04/16 11:19:31;;;;;;;;;;;10.70;99.90;;;;;;6677374;88;20534;-75
2024/04/16 11:29:31;;;;;;;;;;;10.50;99.90;;;;;;6672591;88;20110;-73
2024/04/16 11:39:32;;;;;;;;;;;10.50;99.90;;;;;;6678049;88;20050;-74
2024/04/16 11:49:32;;;;;;;;;;;10.20;99.90;;;;;;6672313;88;20087;-74
2024/04/16 11:59:34;;;;;;;;;;;10.60;99.90;;;;;;6658728;88;20068;-74
2024/04/16 12:09:35;;;;;;;;;;;10.50;99.90;;;;;;6673402;88;20091;-75
2024/04/16 12:19:35;;;;;;;;;;;10.20;99.90;;;;;;6674635;88;20058;-74
2024/04/16 12:29:36;;;;;;;;;;;10.30;99.90;;;;;;6663919;88;20079;-75
2024/04/16 12:39:36;;;;;;;;;;;9.00;99.90;;;;;;6659352;88;20540;-75
2024/04/16 12:49:36;;;;;;;;;;;7.90;99.90;;;;;;6659123;88;20385;-75
2024/04/16 12:59:37;;;;;;;;;;;7.70;99.90;;;;;;6656779;88;20069;-75
2024/04/16 13:09:37;;;;;;;;;;;8.00;99.90;;;;;;6662386;88;20082;-76
2024/04/16 13:19:38;;;;;;;;;;;8.60;99.90;;;;;;6672537;88;20595;-76
2024/04/16 13:29:38;;;;;;;;;;;8.80;99.90;;;;;;6660880;88;20089;-76
2024/04/16 13:39:39;;;;;;;;;;;8.90;99.90;;;;;;6660227;88;20106;-77
2024/04/16 13:49:39;;;;;;;;;;;8.80;99.90;;;;;;6657705;88;20112;-76
2024/04/16 13:59:40;;;;;;;;;;;8.90;99.90;;;;;;6658026;88;20132;-73
2024/04/16 14:09:40;;;;;;;;;;;9.30;99.90;;;;;;6659057;88;20690;-75
2024/04/16 14:19:41;;;;;;;;;;;9.40;99.90;;;;;;6668862;88;20113;-75
2024/04/16 14:29:41;;;;;;;;;;;9.70;99.90;;;;;;6666738;88;20097;-75
2024/04/16 14:39:42;;;;;;;;;;;9.90;99.90;;;;;;6676086;88;20231;-76
2024/04/16 14:49:42;;;;;;;;;;;9.60;99.90;;;;;;6663264;88;20218;-76
2024/04/16 14:59:43;;;;;;;;;;;8.80;99.90;;;;;;6661483;88;20061;-76
2024/04/16 15:09:43;;;;;;;;;;;8.50;99.90;;;;;;6663313;88;20107;-75
2024/04/16 15:19:43;;;;;;;;;;;7.80;99.90;;;;;;6656472;89;20057;-77
2024/04/16 15:29:44;;;;;;;;;;;7.50;99.90;;;;;;6670416;88;20093;-76
2024/04/16 15:39:44;;;;;;;;;;;7.70;99.90;;;;;;6696833;88;20065;-76
2024/04/16 15:49:45;;;;;;;;;;;7.90;99.90;;;;;;6667080;88;20068;-75
2024/04/16 15:59:48;;;;;;;;;;;8.00;99.90;;;;;;6656423;88;20208;-76
2024/04/16 16:09:50;;;;;;;;;;;8.10;99.90;;;;;;6671168;88;20539;-76
2024/04/16 16:19:50;;;;;;;;;;;8.20;99.90;;;;;;6667881;88;20189;-76
2024/04/16 16:29:51;;;;;;;;;;;8.20;99.90;;;;;;6665725;88;20146;-76
2024/04/16 16:39:51;;;;;;;;;;;8.10;99.90;;;;;;6670767;89;20038;-77
2024/04/16 16:49:52;;;;;;;;;;;8.10;99.90;;;;;;6672365;88;20112;-76
2024/04/16 17:10:54;;;;;;;;;;;7.90;99.90;;;;;;6676648;88;20088;-81
2024/04/16 17:20:55;;;;;;;;;;;7.40;99.90;;;;;;6678906;88;20126;-81
2024/04/16 17:30:56;;;;;;;;;;;7.10;99.90;;;;;;6685663;89;20083;-79
2024/04/16 17:40:56;;;;;;;;;;;7.40;99.90;;;;;;6685193;89;20069;-80
2024/04/16 17:51:01;;;;;;;;;;;7.40;99.90;;;;;;6672157;89;20553;-79
2024/04/16 18:01:01;;;;;;;;;;;7.40;99.90;;;;;;6679804;89;20052;-79
2024/04/16 18:11:02;;;;;;;;;;;7.50;99.90;;;;;;6681457;88;20064;-78
2024/04/16 18:21:03;;;;;;;;;;;7.50;99.90;;;;;;6678146;89;20511;-78
2024/04/16 18:31:03;;;;;;;;;;;7.30;99.90;;;;;;6686296;89;20518;-78
2024/04/16 18:41:05;;;;;;;;;;;7.10;99.90;;;;;;6679817;89;20066;-78
2024/04/16 18:51:05;;;;;;;;;;;7.00;99.90;;;;;;6680665;89;20498;-79
2024/04/16 19:01:06;;;;;;;;;;;6.90;99.90;;;;;;6676068;89;20064;-80
2024/04/16 19:11:06;;;;;;;;;;;6.90;99.90;;;;;;6673328;89;20120;-79
2024/04/16 19:21:07;;;;;;;;;;;7.00;99.90;;;;;;6678953;89;20192;-80
2024/04/16 19:31:07;;;;;;;;;;;7.00;99.90;;;;;;6689192;89;20486;-80
2024/04/16 19:41:08;;;;;;;;;;;7.00;99.90;;;;;;6687701;89;20105;-81
2024/04/16 19:51:08;;;;;;;;;;;7.00;99.90;;;;;;6694246;89;20314;-80
2024/04/16 20:01:09;;;;;;;;;;;7.00;99.90;;;;;;6690531;89;20071;-80
2024/04/16 20:11:10;;;;;;;;;;;7.00;99.90;;;;;;6684226;88;20060;-80
2024/04/16 20:21:10;;;;;;;;;;;7.00;99.90;;;;;;6679847;88;20076;-79
2024/04/16 20:31:11;;;;;;;;;;;6.90;99.90;;;;;;6681491;89;20087;-79
2024/04/16 20:41:11;;;;;;;;;;;6.80;99.90;;;;;;6683866;89;20423;-78
2024/04/16 20:51:12;;;;;;;;;;;6.80;99.90;;;;;;6682925;89;20512;-80
2024/04/16 21:01:12;;;;;;;;;;;6.70;99.90;;;;;;6674154;89;20086;-80
2024/04/16 21:11:13;;;;;;;;;;;6.80;99.90;;;;;;6684421;88;20079;-79
2024/04/16 21:21:13;;;;;;;;;;;6.60;99.90;;;;;;6686640;88;20076;-79
2024/04/16 21:31:14;;;;;;;;;;;6.50;99.90;;;;;;6680239;88;20136;-80
2024/04/16 21:41:14;;;;;;;;;;;6.60;99.90;;;;;;6681125;88;20068;-79
2024/04/16 21:51:15;;;;;;;;;;;6.70;99.90;;;;;;6676748;88;20097;-77
2024/04/16 22:01:15;;;;;;;;;;;6.80;99.90;;;;;;6680372;88;20577;-78
2024/04/16 22:11:16;;;;;;;;;;;7.00;99.90;;;;;;6684119;88;20108;-78
2024/04/16 22:21:16;;;;;;;;;;;7.00;99.90;;;;;;6677278;88;20064;-77
2024/04/16 22:31:17;;;;;;;;;;;7.00;99.90;;;;;;6680515;88;20118;-78
2024/04/16 22:41:17;;;;;;;;;;;7.00;99.90;;;;;;6674217;89;20071;-77
2024/04/16 22:51:17;;;;;;;;;;;7.00;99.90;;;;;;6676654;88;20049;-77
2024/04/16 23:01:18;;;;;;;;;;;7.00;99.90;;;;;;6677553;77;20210;-75
2024/04/16 23:11:18;;;;;;;;;;;7.00;99.90;;;;;;6673023;88;20081;-76
2024/04/16 23:21:19;;;;;;;;;;;6.90;99.90;;;;;;6684304;88;20069;-76
2024/04/16 23:31:19;;;;;;;;;;;6.90;99.90;;;;;;6681071;89;20211;-75
2024/04/16 23:41:20;;;;;;;;;;;6.90;99.90;;;;;;6682218;88;20501;-76
2024/04/16 23:51:20;;;;;;;;;;;6.80;99.90;;;;;;6683575;88;20514;-76
